createdAt,value
2022-10-01T00:04:44.871Z,3.25
2022-10-01T00:09:55.428Z,2.05
2022-10-01T00:15:06.147Z,1.77
2022-10-01T00:20:14.860Z,2.50
2022-10-01T00:25:26.812Z,2.42
2022-10-01T00:30:38.389Z,2.05
2022-10-01T00:35:47.735Z,2.00
2022-10-01T00:40:58.620Z,2.15
2022-10-01T00:46:11.547Z,1.70
2022-10-01T00:51:19.332Z,2.20
2022-10-01T00:56:29.526Z,1.90
2022-10-01T01:01:40.335Z,2.13
2022-10-01T01:06:53.822Z,1.73
2022-10-01T01:12:13.633Z,2.60
2022-10-01T01:17:28.529Z,2.22
2022-10-01T01:22:40.205Z,1.70
2022-10-01T01:28:03.997Z,1.92
2022-10-01T01:33:17.872Z,2.22
2022-10-01T01:38:30.977Z,1.70
2022-10-01T01:43:45.702Z,2.35
2022-10-01T01:48:57.108Z,2.47
2022-10-01T01:54:04.923Z,2.40
2022-10-01T01:59:16.431Z,1.95
2022-10-01T02:04:28.979Z,1.73
2022-10-01T02:09:42.509Z,1.95
2022-10-01T02:14:57.818Z,1.98
2022-10-01T02:20:11.160Z,2.33
2022-10-01T02:25:22.439Z,1.75
2022-10-01T02:30:37.028Z,1.90
2022-10-01T02:35:47.975Z,1.65
2022-10-01T02:41:00.983Z,2.10
2022-10-01T02:46:20.264Z,1.77
2022-10-01T02:51:40.561Z,1.60
2022-10-01T02:57:02.192Z,1.50
2022-10-01T03:02:12.910Z,2.10
2022-10-01T03:07:20.507Z,2.10
2022-10-01T03:12:28.140Z,2.22
2022-10-01T03:17:38.856Z,1.45
2022-10-01T03:22:47.719Z,1.77
2022-10-01T03:27:55.260Z,1.80
2022-10-01T03:33:05.391Z,1.52
2022-10-01T03:38:13.808Z,1.47
2022-10-01T03:43:21.387Z,1.45
2022-10-01T03:48:32.505Z,1.50
2022-10-01T03:53:40.023Z,1.40
2022-10-01T03:58:47.588Z,1.40
2022-10-01T04:03:57.746Z,1.70
2022-10-01T04:09:05.643Z,1.57
2022-10-01T04:14:13.136Z,1.30
2022-10-01T04:19:23.242Z,1.35
2022-10-01T04:24:30.842Z,1.30
2022-10-01T04:29:40.313Z,1.52
2022-10-01T04:34:56.648Z,1.35
2022-10-01T04:40:04.596Z,1.10
2022-10-01T04:45:14.037Z,1.02
2022-10-01T04:50:25.813Z,1.10
2022-10-01T04:55:33.537Z,1.80
2022-10-01T05:00:41.833Z,1.35
2022-10-01T05:05:52.250Z,1.13
2022-10-01T05:11:03.188Z,1.15
2022-10-01T05:16:11.898Z,1.10
2022-10-01T05:21:22.044Z,1.20
2022-10-01T05:26:29.685Z,0.97
2022-10-01T05:31:37.833Z,1.20
2022-10-01T05:36:48.448Z,1.45
2022-10-01T05:41:56.239Z,1.80
2022-10-01T05:47:03.961Z,0.77
2022-10-01T05:52:15.093Z,1.25
2022-10-01T05:57:22.581Z,1.67
2022-10-01T06:02:30.359Z,3.25
2022-10-01T06:07:40.533Z,2.15
2022-10-01T06:12:48.693Z,1.33
2022-10-01T06:17:56.280Z,1.23
2022-10-01T06:23:11.336Z,1.20
2022-10-01T06:28:19.346Z,0.90
2022-10-01T06:33:26.934Z,1.10
2022-10-01T06:38:37.447Z,1.10
2022-10-01T06:43:45.081Z,1.10
2022-10-01T06:48:52.545Z,1.00
2022-10-01T06:54:03.107Z,0.90
2022-10-01T06:59:10.601Z,0.98
2022-10-01T07:04:18.109Z,0.77
2022-10-01T07:09:29.606Z,0.93
2022-10-01T07:14:37.101Z,2.10
2022-10-01T07:19:44.628Z,1.20
2022-10-01T07:24:55.043Z,2.00
2022-10-01T07:30:02.537Z,1.20
2022-10-01T07:35:10.826Z,1.40
2022-10-01T07:40:21.510Z,1.40
2022-10-01T07:45:29.483Z,1.38
2022-10-01T07:50:37.033Z,1.00
2022-10-01T07:55:47.507Z,1.00
2022-10-01T08:00:58.684Z,1.10
2022-10-01T08:06:07.103Z,1.10
2022-10-01T08:11:18.339Z,1.02
2022-10-01T08:16:29.179Z,1.00
2022-10-01T08:21:38.019Z,0.80
2022-10-01T08:26:48.542Z,1.50
2022-10-01T08:31:56.366Z,1.63
2022-10-01T08:37:03.880Z,1.50
2022-10-01T08:42:23.528Z,2.63
2022-10-01T08:47:35.084Z,1.67
2022-10-01T08:52:51.915Z,1.77
2022-10-01T08:58:04.912Z,1.40
2022-10-01T09:03:16.839Z,1.30
2022-10-01T09:08:43.764Z,1.20
2022-10-01T09:14:09.700Z,1.60
2022-10-01T09:19:32.740Z,0.98
2022-10-01T09:24:47.026Z,1.45
2022-10-01T09:30:00.898Z,1.10
2022-10-01T09:35:21.892Z,0.98
2022-10-01T09:40:37.816Z,1.20
2022-10-01T09:45:48.297Z,1.00
2022-10-01T09:50:59.578Z,1.40
2022-10-01T09:56:14.714Z,1.92
2022-10-01T10:01:35.234Z,1.23
2022-10-01T10:06:43.508Z,1.70
2022-10-01T10:11:51.936Z,0.80
2022-10-01T10:17:08.941Z,0.80
2022-10-01T10:22:25.197Z,1.48
2022-10-01T10:27:33.609Z,1.50
2022-10-01T10:32:44.525Z,1.23
2022-10-01T10:37:55.172Z,2.67
2022-10-01T10:43:03.096Z,5.43
2022-10-01T10:48:19.981Z,3.50
2022-10-01T10:53:29.860Z,1.95
2022-10-01T10:58:42.522Z,2.20
2022-10-01T11:03:58.089Z,1.75
2022-10-01T11:09:12.435Z,1.83
2022-10-01T11:14:39.519Z,1.27
2022-10-01T11:20:19.841Z,1.00
2022-10-01T11:25:42.222Z,0.80
2022-10-01T11:36:17.712Z,0.70
2022-10-01T11:41:31.993Z,0.70
2022-10-01T11:46:55.151Z,0.65
2022-10-01T11:52:19.300Z,0.63
2022-10-01T11:57:42.071Z,0.65
2022-10-01T12:02:56.040Z,0.60
2022-10-01T12:08:14.899Z,0.60
2022-10-01T12:13:29.185Z,0.60
2022-10-01T12:18:50.075Z,0.60
2022-10-01T12:24:05.249Z,1.10
2022-10-01T12:29:20.798Z,0.60
2022-10-01T12:34:41.025Z,0.70
2022-10-01T12:40:08.302Z,0.80
2022-10-01T12:45:29.100Z,2.60
2022-10-01T12:50:47.536Z,1.77
2022-10-01T12:56:11.010Z,1.50
2022-10-01T13:01:34.397Z,2.10
2022-10-01T13:06:55.482Z,0.90
2022-10-01T13:12:19.634Z,1.10
2022-10-01T13:17:35.641Z,2.42
2022-10-01T13:22:49.863Z,1.77
2022-10-01T13:28:06.242Z,2.35
2022-10-01T13:33:26.224Z,1.80
2022-10-01T13:38:43.919Z,1.20
2022-10-01T13:43:59.716Z,1.20
2022-10-01T13:49:10.942Z,1.15
2022-10-01T13:54:28.174Z,0.68
2022-10-01T13:59:40.112Z,0.60
2022-10-01T14:04:48.852Z,0.45
2022-10-01T14:10:00.728Z,0.55
2022-10-01T14:15:32.324Z,0.73
2022-10-01T14:20:54.536Z,0.60
2022-10-01T14:26:08.525Z,0.80
2022-10-01T14:31:26.905Z,0.73
2022-10-01T14:36:37.601Z,0.70
2022-10-01T14:41:46.221Z,1.00
2022-10-01T14:46:59.972Z,0.50
2022-10-01T14:52:09.651Z,0.70
2022-10-01T14:57:23.697Z,0.88
2022-10-01T15:02:33.981Z,0.50
2022-10-01T15:07:41.479Z,0.67
2022-10-01T15:12:52.673Z,0.57
2022-10-01T15:23:11.469Z,0.40
2022-10-01T15:28:28.549Z,1.05
2022-10-01T15:33:41.279Z,0.73
2022-10-01T15:38:51.001Z,1.15
2022-10-01T15:44:01.508Z,0.90
2022-10-01T15:49:21.100Z,1.30
2022-10-01T15:54:28.637Z,0.70
2022-10-01T15:59:37.105Z,0.85
2022-10-01T16:04:47.706Z,0.90
2022-10-01T16:09:59.137Z,1.27
2022-10-01T16:15:09.267Z,0.88
2022-10-01T16:20:45.613Z,0.70
2022-10-01T16:25:54.199Z,0.73
2022-10-01T16:31:02.163Z,1.13
2022-10-01T16:36:20.824Z,1.20
2022-10-01T16:41:29.798Z,1.42
2022-10-01T16:46:37.493Z,0.93
2022-10-01T16:51:48.134Z,1.40
2022-10-01T16:56:56.715Z,0.93
2022-10-01T17:02:04.223Z,2.42
2022-10-01T17:07:14.339Z,2.83
2022-10-01T17:12:22.260Z,2.00
2022-10-01T17:17:29.739Z,1.73
2022-10-01T17:22:40.028Z,1.40
2022-10-01T17:27:47.843Z,2.13
2022-10-01T17:32:55.400Z,1.70
2022-10-01T17:38:05.496Z,1.23
2022-10-01T17:43:13.661Z,1.38
2022-10-01T17:48:22.034Z,1.40
2022-10-01T17:53:38.234Z,1.92
2022-10-01T17:58:49.905Z,1.23
2022-10-01T18:04:00.412Z,1.70
2022-10-01T18:09:10.668Z,2.27
2022-10-01T18:14:18.221Z,1.70
2022-10-01T18:24:57.130Z,1.20
2022-10-01T18:30:04.653Z,1.30
2022-10-01T18:35:22.018Z,2.10
2022-10-01T18:40:42.499Z,1.40
2022-10-01T18:46:10.286Z,1.90
2022-10-01T18:51:26.465Z,1.50
2022-10-01T18:56:39.184Z,1.27
2022-10-01T19:01:55.804Z,0.93
2022-10-01T19:07:15.047Z,0.70
2022-10-01T19:12:40.494Z,1.35
2022-10-01T19:17:53.758Z,1.08
2022-10-01T19:23:16.022Z,2.30
2022-10-01T19:28:46.544Z,3.08
2022-10-01T19:33:59.514Z,4.10
2022-10-01T19:39:13.530Z,3.42
2022-10-01T19:44:30.007Z,3.90
2022-10-01T19:49:39.840Z,2.47
2022-10-01T19:54:51.519Z,1.77
2022-10-01T20:00:08.710Z,1.38
2022-10-01T20:05:21.200Z,1.40
2022-10-01T20:10:36.182Z,1.02
2022-10-01T20:15:50.377Z,1.38
2022-10-01T20:21:13.231Z,1.55
2022-10-01T20:26:32.508Z,1.90
2022-10-01T20:31:51.980Z,1.65
2022-10-01T20:37:17.726Z,1.60
2022-10-01T20:42:33.686Z,1.88
2022-10-01T20:47:51.437Z,1.40
2022-10-01T20:53:07.547Z,1.40
